sensor_id;sensor_type;location;lat;lon;timestamp;P1;durP1;ratioP1;P2;durP2;ratioP2
36405;SDS011;22438;42.670;23.288;2023-01-28T00:01:22;11.38;;;6.30;;
36405;SDS011;22438;42.670;23.288;2023-01-28T00:04:43;10.60;;;5.50;;
36405;SDS011;22438;42.670;23.288;2023-01-28T00:08:03;9.90;;;5.72;;
36405;SDS011;22438;42.670;23.288;2023-01-28T00:11:24;11.00;;;5.82;;
36405;SDS011;22438;42.670;23.288;2023-01-28T00:14:45;10.60;;;5.82;;
36405;SDS011;22438;42.670;23.288;2023-01-28T00:18:07;11.40;;;5.80;;
36405;SDS011;22438;42.670;23.288;2023-01-28T00:21:28;11.15;;;5.30;;
36405;SDS011;22438;42.670;23.288;2023-01-28T00:24:48;10.32;;;5.25;;
36405;SDS011;22438;42.670;23.288;2023-01-28T00:28:09;10.07;;;5.10;;
36405;SDS011;22438;42.670;23.288;2023-01-28T00:31:30;12.90;;;5.85;;
36405;SDS011;22438;42.670;23.288;2023-01-28T00:34:50;12.00;;;5.28;;
36405;SDS011;22438;42.670;23.288;2023-01-28T00:38:11;10.68;;;5.28;;
36405;SDS011;22438;42.670;23.288;2023-01-28T00:41:32;11.15;;;5.47;;
36405;SDS011;22438;42.670;23.288;2023-01-28T00:44:52;10.18;;;5.18;;
36405;SDS011;22438;42.670;23.288;2023-01-28T00:48:13;11.48;;;5.60;;
36405;SDS011;22438;42.670;23.288;2023-01-28T00:51:34;12.52;;;5.57;;
36405;SDS011;22438;42.670;23.288;2023-01-28T00:54:55;11.98;;;5.72;;
36405;SDS011;22438;42.670;23.288;2023-01-28T00:58:16;12.43;;;5.85;;
36405;SDS011;22438;42.670;23.288;2023-01-28T01:01:37;11.63;;;5.95;;
36405;SDS011;22438;42.670;23.288;2023-01-28T01:04:58;11.95;;;5.65;;
36405;SDS011;22438;42.670;23.288;2023-01-28T01:08:19;12.13;;;6.03;;
36405;SDS011;22438;42.670;23.288;2023-01-28T01:11:50;12.73;;;6.50;;
36405;SDS011;22438;42.670;23.288;2023-01-28T01:15:10;13.23;;;6.60;;
36405;SDS011;22438;42.670;23.288;2023-01-28T01:18:32;14.52;;;5.90;;
36405;SDS011;22438;42.670;23.288;2023-01-28T01:21:53;11.98;;;5.85;;
36405;SDS011;22438;42.670;23.288;2023-01-28T01:25:16;11.43;;;6.30;;
36405;SDS011;22438;42.670;23.288;2023-01-28T01:28:37;12.45;;;6.25;;
36405;SDS011;22438;42.670;23.288;2023-01-28T01:31:58;12.48;;;6.07;;
36405;SDS011;22438;42.670;23.288;2023-01-28T01:35:19;10.73;;;5.38;;
36405;SDS011;22438;42.670;23.288;2023-01-28T01:38:40;11.73;;;6.13;;
36405;SDS011;22438;42.670;23.288;2023-01-28T01:42:01;12.32;;;6.10;;
36405;SDS011;22438;42.670;23.288;2023-01-28T01:45:22;11.55;;;6.00;;
36405;SDS011;22438;42.670;23.288;2023-01-28T01:48:43;10.75;;;5.88;;
36405;SDS011;22438;42.670;23.288;2023-01-28T01:52:09;12.10;;;6.03;;
36405;SDS011;22438;42.670;23.288;2023-01-28T01:55:32;13.88;;;7.03;;
36405;SDS011;22438;42.670;23.288;2023-01-28T01:58:55;12.30;;;6.13;;
36405;SDS011;22438;42.670;23.288;2023-01-28T02:02:16;11.48;;;6.32;;
36405;SDS011;22438;42.670;23.288;2023-01-28T02:05:37;13.20;;;7.05;;
36405;SDS011;22438;42.670;23.288;2023-01-28T02:08:58;11.38;;;5.88;;
36405;SDS011;22438;42.670;23.288;2023-01-28T02:12:20;13.88;;;6.50;;
36405;SDS011;22438;42.670;23.288;2023-01-28T02:15:43;11.38;;;5.82;;
36405;SDS011;22438;42.670;23.288;2023-01-28T02:19:05;11.35;;;5.72;;
36405;SDS011;22438;42.670;23.288;2023-01-28T02:30:12;11.20;;;5.38;;
36405;SDS011;22438;42.670;23.288;2023-01-28T02:37:37;10.32;;;5.57;;
36405;SDS011;22438;42.670;23.288;2023-01-28T02:41:04;10.73;;;5.40;;
36405;SDS011;22438;42.670;23.288;2023-01-28T02:44:29;9.95;;;5.00;;
36405;SDS011;22438;42.670;23.288;2023-01-28T02:47:50;11.75;;;5.70;;
36405;SDS011;22438;42.670;23.288;2023-01-28T02:51:21;13.00;;;6.25;;
36405;SDS011;22438;42.670;23.288;2023-01-28T03:06:14;10.98;;;5.97;;
36405;SDS011;22438;42.670;23.288;2023-01-28T03:09:38;10.75;;;5.05;;
36405;SDS011;22438;42.670;23.288;2023-01-28T03:13:00;13.07;;;5.80;;
36405;SDS011;22438;42.670;23.288;2023-01-28T03:16:39;12.02;;;5.80;;
36405;SDS011;22438;42.670;23.288;2023-01-28T03:20:19;13.13;;;6.20;;
36405;SDS011;22438;42.670;23.288;2023-01-28T03:24:02;12.40;;;5.97;;
36405;SDS011;22438;42.670;23.288;2023-01-28T03:27:49;11.85;;;6.35;;
36405;SDS011;22438;42.670;23.288;2023-01-28T03:31:32;15.38;;;6.43;;
36405;SDS011;22438;42.670;23.288;2023-01-28T03:35:12;11.27;;;5.68;;
36405;SDS011;22438;42.670;23.288;2023-01-28T03:38:54;11.48;;;5.65;;
36405;SDS011;22438;42.670;23.288;2023-01-28T03:42:15;12.45;;;6.15;;
36405;SDS011;22438;42.670;23.288;2023-01-28T03:45:38;12.35;;;6.75;;
36405;SDS011;22438;42.670;23.288;2023-01-28T03:48:58;9.98;;;5.40;;
36405;SDS011;22438;42.670;23.288;2023-01-28T03:52:20;12.20;;;5.90;;
36405;SDS011;22438;42.670;23.288;2023-01-28T03:55:43;10.13;;;5.47;;
36405;SDS011;22438;42.670;23.288;2023-01-28T03:59:05;12.30;;;5.82;;
36405;SDS011;22438;42.670;23.288;2023-01-28T04:02:26;12.80;;;5.85;;
36405;SDS011;22438;42.670;23.288;2023-01-28T04:05:58;12.43;;;6.32;;
36405;SDS011;22438;42.670;23.288;2023-01-28T04:09:21;10.32;;;5.57;;
36405;SDS011;22438;42.670;23.288;2023-01-28T04:12:41;11.65;;;6.03;;
36405;SDS011;22438;42.670;23.288;2023-01-28T04:16:03;11.55;;;6.03;;
36405;SDS011;22438;42.670;23.288;2023-01-28T04:19:24;10.57;;;5.45;;
36405;SDS011;22438;42.670;23.288;2023-01-28T04:22:45;13.20;;;5.65;;
36405;SDS011;22438;42.670;23.288;2023-01-28T04:26:06;11.20;;;6.03;;
36405;SDS011;22438;42.670;23.288;2023-01-28T04:29:27;11.10;;;5.85;;
36405;SDS011;22438;42.670;23.288;2023-01-28T04:32:48;10.10;;;5.05;;
36405;SDS011;22438;42.670;23.288;2023-01-28T04:36:11;11.07;;;5.80;;
36405;SDS011;22438;42.670;23.288;2023-01-28T04:39:32;12.30;;;6.55;;
36405;SDS011;22438;42.670;23.288;2023-01-28T04:42:53;12.95;;;5.72;;
36405;SDS011;22438;42.670;23.288;2023-01-28T04:46:15;11.18;;;5.95;;
36405;SDS011;22438;42.670;23.288;2023-01-28T04:49:36;13.82;;;5.97;;
36405;SDS011;22438;42.670;23.288;2023-01-28T04:52:56;12.02;;;5.93;;
36405;SDS011;22438;42.670;23.288;2023-01-28T04:56:17;16.33;;;7.93;;
36405;SDS011;22438;42.670;23.288;2023-01-28T04:59:38;11.88;;;6.05;;
36405;SDS011;22438;42.670;23.288;2023-01-28T05:02:58;12.68;;;6.53;;
36405;SDS011;22438;42.670;23.288;2023-01-28T05:06:19;12.27;;;6.28;;
36405;SDS011;22438;42.670;23.288;2023-01-28T05:09:40;12.55;;;6.20;;
36405;SDS011;22438;42.670;23.288;2023-01-28T05:13:00;13.43;;;6.68;;
36405;SDS011;22438;42.670;23.288;2023-01-28T05:16:21;11.02;;;6.28;;
36405;SDS011;22438;42.670;23.288;2023-01-28T05:19:42;14.18;;;7.03;;
36405;SDS011;22438;42.670;23.288;2023-01-28T05:23:03;14.13;;;6.85;;
36405;SDS011;22438;42.670;23.288;2023-01-28T05:26:23;12.73;;;5.88;;
36405;SDS011;22438;42.670;23.288;2023-01-28T05:29:44;12.48;;;6.60;;
36405;SDS011;22438;42.670;23.288;2023-01-28T05:33:05;13.05;;;5.95;;
36405;SDS011;22438;42.670;23.288;2023-01-28T05:36:26;13.48;;;6.28;;
36405;SDS011;22438;42.670;23.288;2023-01-28T05:39:46;12.10;;;6.63;;
36405;SDS011;22438;42.670;23.288;2023-01-28T05:43:07;11.23;;;5.53;;
36405;SDS011;22438;42.670;23.288;2023-01-28T05:46:28;12.07;;;5.95;;
36405;SDS011;22438;42.670;23.288;2023-01-28T05:49:48;13.52;;;7.03;;
36405;SDS011;22438;42.670;23.288;2023-01-28T05:53:09;12.10;;;6.20;;
36405;SDS011;22438;42.670;23.288;2023-01-28T05:56:30;10.45;;;5.75;;
36405;SDS011;22438;42.670;23.288;2023-01-28T05:59:50;14.07;;;6.55;;
36405;SDS011;22438;42.670;23.288;2023-01-28T06:03:11;12.07;;;6.05;;
36405;SDS011;22438;42.670;23.288;2023-01-28T06:06:32;14.35;;;6.47;;
36405;SDS011;22438;42.670;23.288;2023-01-28T06:09:53;11.68;;;6.22;;
36405;SDS011;22438;42.670;23.288;2023-01-28T06:13:13;13.10;;;6.53;;
36405;SDS011;22438;42.670;23.288;2023-01-28T06:16:34;12.85;;;6.28;;
36405;SDS011;22438;42.670;23.288;2023-01-28T06:19:55;13.95;;;6.25;;
36405;SDS011;22438;42.670;23.288;2023-01-28T06:23:16;12.15;;;6.60;;
36405;SDS011;22438;42.670;23.288;2023-01-28T06:26:36;13.65;;;7.07;;
36405;SDS011;22438;42.670;23.288;2023-01-28T06:29:57;14.07;;;6.97;;
36405;SDS011;22438;42.670;23.288;2023-01-28T06:33:18;13.60;;;7.35;;
36405;SDS011;22438;42.670;23.288;2023-01-28T06:36:39;16.85;;;7.65;;
36405;SDS011;22438;42.670;23.288;2023-01-28T06:40:00;14.63;;;7.43;;
36405;SDS011;22438;42.670;23.288;2023-01-28T06:43:22;14.35;;;6.93;;
36405;SDS011;22438;42.670;23.288;2023-01-28T06:46:47;10.45;;;5.80;;
36405;SDS011;22438;42.670;23.288;2023-01-28T06:50:08;13.70;;;6.93;;
36405;SDS011;22438;42.670;23.288;2023-01-28T06:53:29;14.45;;;7.05;;
36405;SDS011;22438;42.670;23.288;2023-01-28T06:56:50;13.63;;;6.70;;
36405;SDS011;22438;42.670;23.288;2023-01-28T07:00:11;15.52;;;7.10;;
36405;SDS011;22438;42.670;23.288;2023-01-28T07:03:35;13.35;;;6.70;;
36405;SDS011;22438;42.670;23.288;2023-01-28T07:06:56;13.55;;;7.43;;
36405;SDS011;22438;42.670;23.288;2023-01-28T07:10:16;15.57;;;7.57;;
36405;SDS011;22438;42.670;23.288;2023-01-28T07:13:37;13.85;;;6.25;;
36405;SDS011;22438;42.670;23.288;2023-01-28T07:16:58;15.13;;;7.60;;
36405;SDS011;22438;42.670;23.288;2023-01-28T07:20:19;15.30;;;7.60;;
36405;SDS011;22438;42.670;23.288;2023-01-28T07:23:58;14.75;;;8.63;;
36405;SDS011;22438;42.670;23.288;2023-01-28T07:27:18;15.40;;;7.57;;
36405;SDS011;22438;42.670;23.288;2023-01-28T07:30:39;15.55;;;8.30;;
36405;SDS011;22438;42.670;23.288;2023-01-28T07:34:00;19.27;;;9.52;;
36405;SDS011;22438;42.670;23.288;2023-01-28T07:37:20;16.75;;;8.27;;
36405;SDS011;22438;42.670;23.288;2023-01-28T07:40:41;18.55;;;9.68;;
36405;SDS011;22438;42.670;23.288;2023-01-28T07:44:02;17.30;;;8.50;;
36405;SDS011;22438;42.670;23.288;2023-01-28T07:47:23;17.23;;;9.07;;
36405;SDS011;22438;42.670;23.288;2023-01-28T07:50:43;16.58;;;8.85;;
36405;SDS011;22438;42.670;23.288;2023-01-28T07:54:05;15.52;;;8.35;;
36405;SDS011;22438;42.670;23.288;2023-01-28T07:57:26;15.40;;;7.68;;
36405;SDS011;22438;42.670;23.288;2023-01-28T08:00:49;15.18;;;7.60;;
36405;SDS011;22438;42.670;23.288;2023-01-28T08:04:10;15.20;;;8.27;;
36405;SDS011;22438;42.670;23.288;2023-01-28T08:07:30;16.52;;;8.00;;
36405;SDS011;22438;42.670;23.288;2023-01-28T08:10:51;18.73;;;8.73;;
36405;SDS011;22438;42.670;23.288;2023-01-28T08:14:12;17.58;;;9.10;;
36405;SDS011;22438;42.670;23.288;2023-01-28T08:17:33;13.77;;;7.80;;
36405;SDS011;22438;42.670;23.288;2023-01-28T08:20:58;17.83;;;10.05;;
36405;SDS011;22438;42.670;23.288;2023-01-28T08:24:19;15.80;;;7.85;;
36405;SDS011;22438;42.670;23.288;2023-01-28T08:27:39;13.95;;;8.48;;
36405;SDS011;22438;42.670;23.288;2023-01-28T08:31:00;13.70;;;7.20;;
36405;SDS011;22438;42.670;23.288;2023-01-28T08:34:22;15.35;;;7.45;;
36405;SDS011;22438;42.670;23.288;2023-01-28T08:37:42;15.18;;;7.78;;
36405;SDS011;22438;42.670;23.288;2023-01-28T08:41:03;13.82;;;7.15;;
36405;SDS011;22438;42.670;23.288;2023-01-28T08:44:24;13.20;;;6.90;;
36405;SDS011;22438;42.670;23.288;2023-01-28T08:51:09;15.48;;;8.15;;
36405;SDS011;22438;42.670;23.288;2023-01-28T08:54:30;15.18;;;7.47;;
36405;SDS011;22438;42.670;23.288;2023-01-28T08:57:50;17.13;;;8.07;;
36405;SDS011;22438;42.670;23.288;2023-01-28T09:01:11;14.93;;;7.20;;
36405;SDS011;22438;42.670;23.288;2023-01-28T09:04:32;14.35;;;7.95;;
36405;SDS011;22438;42.670;23.288;2023-01-28T09:07:52;13.45;;;7.38;;
36405;SDS011;22438;42.670;23.288;2023-01-28T09:11:13;12.93;;;7.13;;
36405;SDS011;22438;42.670;23.288;2023-01-28T09:14:34;14.35;;;6.97;;
36405;SDS011;22438;42.670;23.288;2023-01-28T09:17:58;13.65;;;7.32;;
36405;SDS011;22438;42.670;23.288;2023-01-28T09:21:19;15.40;;;8.32;;
36405;SDS011;22438;42.670;23.288;2023-01-28T09:24:40;12.82;;;6.78;;
36405;SDS011;22438;42.670;23.288;2023-01-28T09:28:02;14.15;;;7.22;;
36405;SDS011;22438;42.670;23.288;2023-01-28T09:31:23;13.63;;;6.60;;
36405;SDS011;22438;42.670;23.288;2023-01-28T09:34:44;16.20;;;8.15;;
36405;SDS011;22438;42.670;23.288;2023-01-28T09:38:05;15.57;;;8.13;;
36405;SDS011;22438;42.670;23.288;2023-01-28T09:41:32;17.25;;;9.55;;
36405;SDS011;22438;42.670;23.288;2023-01-28T09:48:30;14.55;;;7.53;;
36405;SDS011;22438;42.670;23.288;2023-01-28T09:51:53;17.02;;;8.60;;
36405;SDS011;22438;42.670;23.288;2023-01-28T09:58:37;14.88;;;7.15;;
36405;SDS011;22438;42.670;23.288;2023-01-28T10:23:50;18.70;;;10.07;;
36405;SDS011;22438;42.670;23.288;2023-01-28T10:27:21;16.73;;;8.40;;
36405;SDS011;22438;42.670;23.288;2023-01-28T10:30:43;18.08;;;8.70;;
36405;SDS011;22438;42.670;23.288;2023-01-28T10:34:05;16.92;;;8.20;;
36405;SDS011;22438;42.670;23.288;2023-01-28T10:37:26;16.60;;;8.65;;
36405;SDS011;22438;42.670;23.288;2023-01-28T10:40:48;16.55;;;8.48;;
36405;SDS011;22438;42.670;23.288;2023-01-28T10:44:13;16.85;;;7.80;;
36405;SDS011;22438;42.670;23.288;2023-01-28T10:48:06;16.67;;;8.63;;
36405;SDS011;22438;42.670;23.288;2023-01-28T10:51:37;14.90;;;6.97;;
36405;SDS011;22438;42.670;23.288;2023-01-28T10:55:03;12.68;;;6.72;;
36405;SDS011;22438;42.670;23.288;2023-01-28T10:58:28;15.45;;;8.45;;
36405;SDS011;22438;42.670;23.288;2023-01-28T11:01:51;12.77;;;7.20;;
36405;SDS011;22438;42.670;23.288;2023-01-28T11:05:15;15.20;;;8.60;;
36405;SDS011;22438;42.670;23.288;2023-01-28T11:08:43;15.02;;;7.85;;
36405;SDS011;22438;42.670;23.288;2023-01-28T11:15:47;14.05;;;7.55;;
36405;SDS011;22438;42.670;23.288;2023-01-28T11:19:20;14.27;;;7.68;;
36405;SDS011;22438;42.670;23.288;2023-01-28T11:22:44;11.40;;;6.28;;
36405;SDS011;22438;42.670;23.288;2023-01-28T11:26:07;14.27;;;7.47;;
36405;SDS011;22438;42.670;23.288;2023-01-28T11:29:33;16.30;;;8.18;;
36405;SDS011;22438;42.670;23.288;2023-01-28T11:37:19;26.45;;;8.30;;
36405;SDS011;22438;42.670;23.288;2023-01-28T11:40:33;14.90;;;7.15;;
36405;SDS011;22438;42.670;23.288;2023-01-28T11:43:53;14.20;;;7.63;;
36405;SDS011;22438;42.670;23.288;2023-01-28T11:47:18;13.02;;;6.75;;
36405;SDS011;22438;42.670;23.288;2023-01-28T12:01:15;14.60;;;8.02;;
36405;SDS011;22438;42.670;23.288;2023-01-28T12:10:17;14.15;;;7.60;;
36405;SDS011;22438;42.670;23.288;2023-01-28T12:36:41;16.85;;;10.80;;
36405;SDS011;22438;42.670;23.288;2023-01-28T12:40:21;16.83;;;9.63;;
36405;SDS011;22438;42.670;23.288;2023-01-28T12:43:40;13.65;;;7.50;;
36405;SDS011;22438;42.670;23.288;2023-01-28T12:47:06;14.32;;;8.50;;
36405;SDS011;22438;42.670;23.288;2023-01-28T12:50:35;16.05;;;8.25;;
36405;SDS011;22438;42.670;23.288;2023-01-28T12:57:36;16.17;;;8.80;;
36405;SDS011;22438;42.670;23.288;2023-01-28T13:00:59;16.08;;;8.27;;
36405;SDS011;22438;42.670;23.288;2023-01-28T13:04:28;16.13;;;8.68;;
36405;SDS011;22438;42.670;23.288;2023-01-28T13:08:07;15.35;;;8.13;;
36405;SDS011;22438;42.670;23.288;2023-01-28T13:11:34;15.52;;;8.05;;
36405;SDS011;22438;42.670;23.288;2023-01-28T13:14:56;18.83;;;8.90;;
36405;SDS011;22438;42.670;23.288;2023-01-28T13:22:08;17.00;;;9.80;;
36405;SDS011;22438;42.670;23.288;2023-01-28T13:25:47;17.23;;;8.50;;
36405;SDS011;22438;42.670;23.288;2023-01-28T13:29:16;15.90;;;9.18;;
36405;SDS011;22438;42.670;23.288;2023-01-28T13:33:02;17.90;;;9.13;;
36405;SDS011;22438;42.670;23.288;2023-01-28T13:36:38;15.37;;;7.87;;
36405;SDS011;22438;42.670;23.288;2023-01-28T13:43:38;15.85;;;8.10;;
36405;SDS011;22438;42.670;23.288;2023-01-28T13:50:32;19.00;;;10.45;;
36405;SDS011;22438;42.670;23.288;2023-01-28T14:12:22;14.68;;;8.90;;
36405;SDS011;22438;42.670;23.288;2023-01-28T14:19:47;14.60;;;8.18;;
36405;SDS011;22438;42.670;23.288;2023-01-28T14:23:15;16.40;;;8.43;;
36405;SDS011;22438;42.670;23.288;2023-01-28T14:30:33;19.00;;;9.90;;
36405;SDS011;22438;42.670;23.288;2023-01-28T14:34:25;17.08;;;9.65;;
36405;SDS011;22438;42.670;23.288;2023-01-28T14:37:45;16.55;;;9.07;;
36405;SDS011;22438;42.670;23.288;2023-01-28T14:41:06;19.35;;;10.50;;
36405;SDS011;22438;42.670;23.288;2023-01-28T14:44:37;21.63;;;10.65;;
36405;SDS011;22438;42.670;23.288;2023-01-28T14:58:57;17.63;;;8.30;;
36405;SDS011;22438;42.670;23.288;2023-01-28T15:02:24;16.25;;;8.15;;
36405;SDS011;22438;42.670;23.288;2023-01-28T15:05:45;16.48;;;8.55;;
36405;SDS011;22438;42.670;23.288;2023-01-28T15:09:07;15.93;;;8.35;;
36405;SDS011;22438;42.670;23.288;2023-01-28T15:12:29;17.02;;;8.65;;
36405;SDS011;22438;42.670;23.288;2023-01-28T15:15:53;16.50;;;8.18;;
36405;SDS011;22438;42.670;23.288;2023-01-28T15:19:21;18.20;;;10.10;;
36405;SDS011;22438;42.670;23.288;2023-01-28T15:22:46;16.58;;;8.75;;
36405;SDS011;22438;42.670;23.288;2023-01-28T15:26:12;15.75;;;8.68;;
36405;SDS011;22438;42.670;23.288;2023-01-28T15:29:36;18.98;;;9.65;;
36405;SDS011;22438;42.670;23.288;2023-01-28T15:33:01;15.10;;;8.25;;
36405;SDS011;22438;42.670;23.288;2023-01-28T15:36:31;17.77;;;8.60;;
36405;SDS011;22438;42.670;23.288;2023-01-28T15:40:01;16.70;;;9.00;;
36405;SDS011;22438;42.670;23.288;2023-01-28T15:43:35;16.13;;;8.57;;
36405;SDS011;22438;42.670;23.288;2023-01-28T15:47:00;16.50;;;8.77;;
36405;SDS011;22438;42.670;23.288;2023-01-28T15:50:23;19.52;;;9.25;;
36405;SDS011;22438;42.670;23.288;2023-01-28T15:53:45;17.50;;;8.32;;
36405;SDS011;22438;42.670;23.288;2023-01-28T16:00:48;17.50;;;9.93;;
36405;SDS011;22438;42.670;23.288;2023-01-28T16:04:22;17.42;;;9.55;;
36405;SDS011;22438;42.670;23.288;2023-01-28T16:07:48;16.95;;;8.63;;
36405;SDS011;22438;42.670;23.288;2023-01-28T16:11:09;18.00;;;8.93;;
36405;SDS011;22438;42.670;23.288;2023-01-28T16:14:32;21.30;;;10.52;;
36405;SDS011;22438;42.670;23.288;2023-01-28T16:17:56;22.50;;;10.85;;
36405;SDS011;22438;42.670;23.288;2023-01-28T16:21:21;21.90;;;11.25;;
36405;SDS011;22438;42.670;23.288;2023-01-28T16:24:51;20.58;;;11.73;;
36405;SDS011;22438;42.670;23.288;2023-01-28T16:28:16;24.33;;;12.60;;
36405;SDS011;22438;42.670;23.288;2023-01-28T16:31:38;20.20;;;10.73;;
36405;SDS011;22438;42.670;23.288;2023-01-28T16:34:59;21.48;;;11.02;;
36405;SDS011;22438;42.670;23.288;2023-01-28T16:38:20;19.52;;;10.05;;
36405;SDS011;22438;42.670;23.288;2023-01-28T16:41:42;19.30;;;10.00;;
36405;SDS011;22438;42.670;23.288;2023-01-28T16:45:05;13.60;;;8.18;;
36405;SDS011;22438;42.670;23.288;2023-01-28T16:48:26;15.20;;;8.13;;
36405;SDS011;22438;42.670;23.288;2023-01-28T16:51:49;14.43;;;8.27;;
36405;SDS011;22438;42.670;23.288;2023-01-28T16:55:11;16.67;;;8.95;;
36405;SDS011;22438;42.670;23.288;2023-01-28T16:58:33;15.50;;;9.52;;
36405;SDS011;22438;42.670;23.288;2023-01-28T17:01:53;16.77;;;9.15;;
36405;SDS011;22438;42.670;23.288;2023-01-28T17:05:14;19.77;;;10.13;;
36405;SDS011;22438;42.670;23.288;2023-01-28T17:08:35;19.00;;;10.10;;
36405;SDS011;22438;42.670;23.288;2023-01-28T17:11:56;39.67;;;18.40;;
36405;SDS011;22438;42.670;23.288;2023-01-28T17:15:16;26.00;;;13.30;;
36405;SDS011;22438;42.670;23.288;2023-01-28T17:18:37;23.70;;;11.80;;
36405;SDS011;22438;42.670;23.288;2023-01-28T17:21:58;28.73;;;14.18;;
36405;SDS011;22438;42.670;23.288;2023-01-28T17:25:18;22.42;;;11.48;;
36405;SDS011;22438;42.670;23.288;2023-01-28T17:28:39;19.08;;;11.23;;
36405;SDS011;22438;42.670;23.288;2023-01-28T17:32:00;19.48;;;10.38;;
36405;SDS011;22438;42.670;23.288;2023-01-28T17:35:21;18.05;;;9.15;;
36405;SDS011;22438;42.670;23.288;2023-01-28T17:38:45;15.77;;;8.95;;
36405;SDS011;22438;42.670;23.288;2023-01-28T17:42:05;18.48;;;9.43;;
36405;SDS011;22438;42.670;23.288;2023-01-28T17:45:28;19.02;;;9.88;;
36405;SDS011;22438;42.670;23.288;2023-01-28T17:48:52;16.85;;;9.50;;
36405;SDS011;22438;42.670;23.288;2023-01-28T17:52:13;19.83;;;10.38;;
36405;SDS011;22438;42.670;23.288;2023-01-28T17:55:34;22.40;;;10.40;;
36405;SDS011;22438;42.670;23.288;2023-01-28T17:59:00;19.02;;;10.27;;
36405;SDS011;22438;42.670;23.288;2023-01-28T18:02:22;20.60;;;11.50;;
36405;SDS011;22438;42.670;23.288;2023-01-28T18:05:43;22.00;;;12.35;;
36405;SDS011;22438;42.670;23.288;2023-01-28T18:12:43;23.83;;;12.27;;
36405;SDS011;22438;42.670;23.288;2023-01-28T18:16:05;24.33;;;12.23;;
36405;SDS011;22438;42.670;23.288;2023-01-28T18:19:27;22.65;;;12.35;;
36405;SDS011;22438;42.670;23.288;2023-01-28T18:22:48;24.48;;;13.18;;
36405;SDS011;22438;42.670;23.288;2023-01-28T18:26:08;22.30;;;12.15;;
36405;SDS011;22438;42.670;23.288;2023-01-28T18:29:30;24.52;;;13.25;;
36405;SDS011;22438;42.670;23.288;2023-01-28T18:32:50;26.13;;;14.52;;
36405;SDS011;22438;42.670;23.288;2023-01-28T18:36:11;27.10;;;13.57;;
36405;SDS011;22438;42.670;23.288;2023-01-28T18:39:33;24.60;;;13.20;;
36405;SDS011;22438;42.670;23.288;2023-01-28T18:42:54;17.13;;;9.23;;
36405;SDS011;22438;42.670;23.288;2023-01-28T18:46:15;17.67;;;8.18;;
36405;SDS011;22438;42.670;23.288;2023-01-28T18:49:39;15.80;;;8.13;;
36405;SDS011;22438;42.670;23.288;2023-01-28T18:53:00;16.58;;;7.78;;
36405;SDS011;22438;42.670;23.288;2023-01-28T18:56:21;22.58;;;11.25;;
36405;SDS011;22438;42.670;23.288;2023-01-28T18:59:42;16.30;;;8.68;;
36405;SDS011;22438;42.670;23.288;2023-01-28T19:03:02;17.02;;;8.73;;
36405;SDS011;22438;42.670;23.288;2023-01-28T19:06:23;17.05;;;9.20;;
36405;SDS011;22438;42.670;23.288;2023-01-28T19:09:45;21.92;;;10.43;;
36405;SDS011;22438;42.670;23.288;2023-01-28T19:13:06;19.58;;;10.38;;
36405;SDS011;22438;42.670;23.288;2023-01-28T19:16:27;20.27;;;10.20;;
36405;SDS011;22438;42.670;23.288;2023-01-28T19:19:48;17.60;;;10.18;;
36405;SDS011;22438;42.670;23.288;2023-01-28T19:23:09;20.52;;;10.63;;
36405;SDS011;22438;42.670;23.288;2023-01-28T19:26:31;20.88;;;10.55;;
36405;SDS011;22438;42.670;23.288;2023-01-28T19:29:52;17.98;;;9.90;;
36405;SDS011;22438;42.670;23.288;2023-01-28T19:33:13;16.92;;;9.55;;
36405;SDS011;22438;42.670;23.288;2023-01-28T19:36:34;16.73;;;9.30;;
36405;SDS011;22438;42.670;23.288;2023-01-28T19:39:55;17.55;;;9.68;;
36405;SDS011;22438;42.670;23.288;2023-01-28T19:43:16;19.10;;;9.48;;
36405;SDS011;22438;42.670;23.288;2023-01-28T19:46:36;17.88;;;8.98;;
36405;SDS011;22438;42.670;23.288;2023-01-28T19:49:57;18.92;;;10.55;;
36405;SDS011;22438;42.670;23.288;2023-01-28T19:53:18;18.42;;;9.65;;
36405;SDS011;22438;42.670;23.288;2023-01-28T19:56:39;19.38;;;9.75;;
36405;SDS011;22438;42.670;23.288;2023-01-28T20:00:00;17.55;;;9.13;;
36405;SDS011;22438;42.670;23.288;2023-01-28T20:03:20;20.13;;;10.07;;
36405;SDS011;22438;42.670;23.288;2023-01-28T20:06:41;17.27;;;8.93;;
36405;SDS011;22438;42.670;23.288;2023-01-28T20:10:02;19.33;;;10.32;;
36405;SDS011;22438;42.670;23.288;2023-01-28T20:13:23;18.90;;;10.27;;
36405;SDS011;22438;42.670;23.288;2023-01-28T20:16:43;19.17;;;9.52;;
36405;SDS011;22438;42.670;23.288;2023-01-28T20:20:04;18.10;;;9.27;;
36405;SDS011;22438;42.670;23.288;2023-01-28T20:23:26;20.33;;;9.75;;
36405;SDS011;22438;42.670;23.288;2023-01-28T20:26:47;19.00;;;9.77;;
36405;SDS011;22438;42.670;23.288;2023-01-28T20:30:07;20.58;;;11.05;;
36405;SDS011;22438;42.670;23.288;2023-01-28T20:33:29;20.27;;;9.82;;
36405;SDS011;22438;42.670;23.288;2023-01-28T20:36:50;18.27;;;9.68;;
36405;SDS011;22438;42.670;23.288;2023-01-28T20:40:11;16.38;;;9.05;;
36405;SDS011;22438;42.670;23.288;2023-01-28T20:43:37;16.58;;;8.35;;
36405;SDS011;22438;42.670;23.288;2023-01-28T20:47:00;17.98;;;8.52;;
36405;SDS011;22438;42.670;23.288;2023-01-28T20:50:21;18.73;;;9.50;;
36405;SDS011;22438;42.670;23.288;2023-01-28T20:53:42;22.25;;;10.00;;
36405;SDS011;22438;42.670;23.288;2023-01-28T20:57:04;20.88;;;10.50;;
36405;SDS011;22438;42.670;23.288;2023-01-28T21:00:25;19.13;;;10.60;;
36405;SDS011;22438;42.670;23.288;2023-01-28T21:03:46;17.75;;;9.13;;
36405;SDS011;22438;42.670;23.288;2023-01-28T21:07:07;19.17;;;9.73;;
36405;SDS011;22438;42.670;23.288;2023-01-28T21:10:28;18.58;;;10.50;;
36405;SDS011;22438;42.670;23.288;2023-01-28T21:13:49;16.60;;;8.30;;
36405;SDS011;22438;42.670;23.288;2023-01-28T21:17:10;18.33;;;9.18;;
36405;SDS011;22438;42.670;23.288;2023-01-28T21:20:31;19.35;;;9.32;;
36405;SDS011;22438;42.670;23.288;2023-01-28T21:23:53;18.70;;;8.75;;
36405;SDS011;22438;42.670;23.288;2023-01-28T21:27:16;17.95;;;9.02;;
36405;SDS011;22438;42.670;23.288;2023-01-28T21:30:37;18.23;;;8.70;;
36405;SDS011;22438;42.670;23.288;2023-01-28T21:33:58;22.25;;;9.95;;
36405;SDS011;22438;42.670;23.288;2023-01-28T21:37:22;18.88;;;8.82;;
36405;SDS011;22438;42.670;23.288;2023-01-28T21:40:43;18.38;;;9.20;;
36405;SDS011;22438;42.670;23.288;2023-01-28T21:44:04;19.05;;;9.32;;
36405;SDS011;22438;42.670;23.288;2023-01-28T21:47:24;20.08;;;10.63;;
36405;SDS011;22438;42.670;23.288;2023-01-28T21:50:45;20.88;;;9.85;;
36405;SDS011;22438;42.670;23.288;2023-01-28T21:54:24;19.77;;;9.73;;
36405;SDS011;22438;42.670;23.288;2023-01-28T21:57:45;18.52;;;9.57;;
36405;SDS011;22438;42.670;23.288;2023-01-28T22:01:06;21.40;;;10.32;;
36405;SDS011;22438;42.670;23.288;2023-01-28T22:04:35;19.25;;;9.02;;
36405;SDS011;22438;42.670;23.288;2023-01-28T22:07:57;19.23;;;10.07;;
36405;SDS011;22438;42.670;23.288;2023-01-28T22:11:18;23.02;;;10.57;;
36405;SDS011;22438;42.670;23.288;2023-01-28T22:14:39;22.08;;;10.77;;
36405;SDS011;22438;42.670;23.288;2023-01-28T22:18:01;18.73;;;9.05;;
36405;SDS011;22438;42.670;23.288;2023-01-28T22:21:22;21.27;;;10.35;;
36405;SDS011;22438;42.670;23.288;2023-01-28T22:24:43;18.50;;;9.55;;